Time;durP1;ratioP1;P1;durP2;ratioP2;P2;SDS_P1;SDS_P2;PMS_P1;PMS_P2;Temp;Humidity;BMP_temperature;BMP_pressure;BME280_temperature;BME280_humidity;BME280_pressure;Samples;Min_cycle;Max_cycle;Signal;HPM_P1;HPM_P2
2023/06/18 00:00:46;;;;;;;25.88;16.42;;;;;;;;;;5065247;28;20055;-65
2023/06/18 00:03:11;;;;;;;25.42;18.40;;;15.10;99.90;;;;;;5067217;28;20387;-65
2023/06/18 00:05:37;;;;;;;27.77;19.50;;;;;;;;;;5063916;28;20068;-65
2023/06/18 00:08:05;;;;;;;32.08;21.42;;;;;;;;;;5066997;28;20048;-65
2023/06/18 00:10:31;;;;;;;27.88;19.65;;;;;;;;;;5066864;28;20118;-65
2023/06/18 00:12:57;;;;;;;28.85;19.52;;;;;;;;;;5065131;28;20040;-65
2023/06/18 00:15:24;;;;;;;28.52;19.15;;;;;;;;;;5066528;28;20216;-65
2023/06/18 00:17:50;;;;;;;28.65;20.63;;;15.30;99.90;;;;;;5066958;28;20047;-65
2023/06/18 00:20:16;;;;;;;30.65;20.48;;;;;;;;;;5065319;28;20048;-65
2023/06/18 00:22:43;;;;;;;26.67;19.08;;;;;;;;;;5065431;28;20044;-65
2023/06/18 00:25:10;;;;;;;24.00;18.33;;;;;;;;;;5065775;28;20056;-65
2023/06/18 00:27:36;;;;;;;25.08;18.85;;;;;;;;;;5065397;28;20054;-65
2023/06/18 00:30:04;;;;;;;22.52;16.67;;;;;;;;;;5064989;28;20055;-65
2023/06/18 00:32:31;;;;;;;24.70;17.58;;;;;;;;;;5065169;28;20147;-65
2023/06/18 00:35:00;;;;;;;26.25;17.98;;;;;;;;;;5064784;28;20044;-65
2023/06/18 00:37:27;;;;;;;25.50;19.45;;;15.50;99.90;;;;;;5066264;28;20072;-65
2023/06/18 00:39:54;;;;;;;24.55;18.23;;;;;;;;;;5064657;28;20063;-65
2023/06/18 00:42:20;;;;;;;25.42;19.23;;;;;;;;;;5066232;28;20039;-65
2023/06/18 00:44:47;;;;;;;25.27;17.73;;;;;;;;;;5064809;28;20060;-65
2023/06/18 00:47:13;;;;;;;26.52;19.60;;;15.30;99.90;;;;;;5065874;28;20044;-65
2023/06/18 00:49:42;;;;;;;26.05;20.35;;;15.10;99.90;;;;;;5065965;28;20127;-65
2023/06/18 00:52:12;;;;;;;32.30;25.23;;;14.90;99.90;;;;;;5066230;28;20426;-65
2023/06/18 00:54:39;;;;;;;29.25;23.88;;;14.90;99.90;;;;;;5066242;28;20189;-65
2023/06/18 00:57:08;;;;;;;22.45;17.08;;;14.80;99.90;;;;;;5065985;28;20040;-65
2023/06/18 00:59:34;;;;;;;24.65;17.52;;;14.80;99.90;;;;;;5066050;28;20503;-65
2023/06/18 01:02:01;;;;;;;22.40;17.35;;;;;;;;;;5064530;28;20040;-65
2023/06/18 01:04:28;;;;;;;23.85;17.98;;;15.10;99.90;;;;;;5065967;28;20052;-65
2023/06/18 01:06:55;;;;;;;26.15;21.60;;;14.80;99.90;;;;;;5065937;28;20055;-65
2023/06/18 01:09:22;;;;;;;23.02;18.45;;;;;;;;;;5065675;28;20127;-65
2023/06/18 01:11:52;;;;;;;14.88;11.73;;;14.80;99.90;;;;;;5064439;28;20051;-65
2023/06/18 01:14:30;;;;;;;16.95;12.93;;;14.60;99.90;;;;;;5063973;28;20184;-66
2023/06/18 01:16:58;;;;;;;12.70;11.20;;;14.60;99.90;;;;;;5064244;28;20037;-65
2023/06/18 01:19:47;;;;;;;16.48;12.85;;;14.50;99.90;;;;;;5065442;28;20047;-65
2023/06/18 01:22:46;;;;;;;12.55;10.63;;;14.50;99.90;;;;;;5064256;28;20089;-65
2023/06/18 01:25:13;;;;;;;16.77;10.68;;;14.60;99.90;;;;;;5064253;28;20044;-65
2023/06/18 01:27:43;;;;;;;13.43;10.43;;;14.40;99.90;;;;;;5064325;28;20055;-65
2023/06/18 01:30:13;;;;;;;16.10;11.98;;;14.50;99.90;;;;;;5065269;28;20048;-65
2023/06/18 01:32:39;;;;;;;15.93;12.18;;;14.60;99.90;;;;;;5064315;28;20047;-65
2023/06/18 01:35:07;;;;;;;15.98;12.77;;;14.80;99.90;;;;;;5063914;28;20047;-65
2023/06/18 01:37:39;;;;;;;18.65;14.55;;;14.50;99.90;;;;;;5064263;28;20040;-65
2023/06/18 01:40:12;;;;;;;19.00;15.23;;;14.70;99.90;;;;;;5059277;28;20051;-65
2023/06/18 01:42:44;;;;;;;17.80;14.23;;;14.40;99.90;;;;;;5064328;28;20041;-65
2023/06/18 01:45:18;;;;;;;17.13;13.85;;;14.40;99.90;;;;;;5062899;28;20081;-65
2023/06/18 01:47:45;;;;;;;15.23;12.17;;;;;;;;;;5064551;28;20048;-65
2023/06/18 01:50:13;;;;;;;4.47;4.07;;;14.40;99.90;;;;;;5065234;28;20278;-65
2023/06/18 01:52:42;;;;;;;7.13;5.60;;;14.20;99.90;;;;;;5065798;28;20051;-65
2023/06/18 01:55:10;;;;;;;26.73;12.45;;;14.00;99.90;;;;;;5065429;28;20517;-65
2023/06/18 01:57:36;;;;;;;20.60;14.80;;;14.10;99.90;;;;;;5065278;28;20494;-65
2023/06/18 02:00:04;;;;;;;29.73;26.48;;;13.70;99.90;;;;;;5065632;28;20402;-65
2023/06/18 02:02:30;;;;;;;33.80;17.15;;;;;;;;;;5065126;28;20048;-65
2023/06/18 02:04:56;;;;;;;19.58;12.70;;;13.50;99.90;;;;;;5065323;28;20208;-65
2023/06/18 02:07:22;;;;;;;26.48;13.75;;;;;;;;;;5063892;28;20033;-65
2023/06/18 02:09:48;;;;;;;26.60;16.98;;;;;;;;;;5063909;28;20059;-65
2023/06/18 02:12:14;;;;;;;28.13;16.80;;;;;;;;;;5069340;28;20047;-65
2023/06/18 02:14:40;;;;;;;39.40;15.00;;;;;;;;;;5067555;28;20052;-65
2023/06/18 02:17:06;;;;;;;25.35;15.05;;;13.60;99.90;;;;;;5067683;28;20114;-65
2023/06/18 02:19:32;;;;;;;25.63;12.50;;;;;;;;;;5067448;28;20048;-65
2023/06/18 02:21:57;;;;;;;88.13;14.77;;;13.40;99.90;;;;;;5068724;28;20056;-65
2023/06/18 02:24:23;;;;;;;27.58;15.13;;;;;;;;;;5069249;28;20165;-65
2023/06/18 02:26:49;;;;;;;13.32;10.13;;;13.20;99.90;;;;;;5067237;28;20097;-65
2023/06/18 02:29:15;;;;;;;9.23;8.07;;;;;;;;;;5068615;28;20068;-65
2023/06/18 02:31:41;;;;;;;14.20;8.93;;;;;;;;;;5069126;28;20139;-65
2023/06/18 02:34:07;;;;;;;14.07;7.55;;;;;;;;;;5068740;28;20146;-65
2023/06/18 02:36:34;;;;;;;4.63;4.20;;;;;;;;;;5067633;28;20181;-64
2023/06/18 02:39:00;;;;;;;6.93;5.85;;;;;;;;;;5067063;28;20040;-64
2023/06/18 02:41:26;;;;;;;7.97;6.45;;;;;;;;;;5067370;28;20048;-65
2023/06/18 02:43:53;;;;;;;9.30;7.93;;;;;;;;;;5066308;28;20098;-65
2023/06/18 02:46:19;;;;;;;12.63;10.18;;;13.10;99.90;;;;;;5068542;28;20048;-65
2023/06/18 02:48:45;;;;;;;13.73;11.68;;;;;;;;;;5066916;28;20379;-65
2023/06/18 02:51:11;;;;;;;17.08;13.27;;;13.30;99.90;;;;;;5067137;28;20051;-65
2023/06/18 02:53:37;;;;;;;28.40;19.05;;;;;;;;;;5068015;28;20044;-64
2023/06/18 02:56:03;;;;;;;25.25;18.42;;;;;;;;;;5068178;28;20047;-64
2023/06/18 02:58:28;;;;;;;25.25;16.83;;;13.70;99.90;;;;;;5063424;28;20044;-64
2023/06/18 03:01:02;;;;;;;22.25;15.15;;;13.60;99.90;;;;;;5066560;28;20040;-65
2023/06/18 03:03:28;;;;;;;24.13;15.40;;;;;;;;;;5061007;28;20048;-65
2023/06/18 03:05:54;;;;;;;22.35;15.07;;;13.30;99.90;;;;;;5066425;28;20138;-65
2023/06/18 03:08:20;;;;;;;28.83;18.52;;;;;;;;;;5067635;28;20072;-65
2023/06/18 03:10:46;;;;;;;29.92;20.58;;;;;;;;;;5066292;28;20580;-65
2023/06/18 03:13:12;;;;;;;37.53;24.17;;;13.30;99.90;;;;;;5067598;28;20127;-65
2023/06/18 03:15:38;;;;;;;35.83;24.67;;;;;;;;;;5067508;28;20095;-65
2023/06/18 03:18:05;;;;;;;35.03;23.60;;;;;;;;;;5066012;28;20048;-65
2023/06/18 03:20:31;;;;;;;33.03;22.77;;;13.50;99.90;;;;;;5065814;28;20056;-65
2023/06/18 03:22:57;;;;;;;34.88;23.40;;;13.30;99.90;;;;;;5067661;28;20802;-65
2023/06/18 03:25:23;;;;;;;33.22;23.23;;;;;;;;;;5067338;28;20131;-65
2023/06/18 03:27:51;;;;;;;40.63;26.25;;;13.70;99.90;;;;;;5066166;28;20152;-65
2023/06/18 03:30:17;;;;;;;39.17;25.33;;;13.60;99.90;;;;;;5067560;28;20040;-65
2023/06/18 03:32:43;;;;;;;39.40;26.45;;;;;;;;;;5067697;28;20044;-65
2023/06/18 03:35:09;;;;;;;36.90;25.65;;;;;;;;;;5067570;28;20516;-65
2023/06/18 03:37:38;;;;;;;32.38;23.70;;;;;;;;;;5067848;28;20040;-65
2023/06/18 03:40:04;;;;;;;38.10;26.67;;;13.70;99.90;;;;;;5067353;28;20769;-65
2023/06/18 03:42:30;;;;;;;36.13;24.02;;;;;;;;;;5066022;28;20095;-65
2023/06/18 03:44:56;;;;;;;32.25;21.50;;;;;;;;;;5066030;28;20052;-65
2023/06/18 03:47:22;;;;;;;32.63;22.25;;;;;;;;;;5065684;28;20101;-65
2023/06/18 03:49:49;;;;;;;37.25;25.23;;;;;;;;;;5067223;28;20109;-65
2023/06/18 03:52:15;;;;;;;35.67;23.48;;;;;;;;;;5065462;28;20135;-65
2023/06/18 03:54:41;;;;;;;29.67;21.92;;;;;;;;;;5067174;28;20040;-65
2023/06/18 03:57:08;;;;;;;32.47;23.00;;;;;;;;;;5066747;28;20148;-65
2023/06/18 03:59:34;;;;;;;33.88;21.83;;;;;;;;;;5067117;28;20036;-65
2023/06/18 04:02:00;;;;;;;31.98;22.90;;;;;;;;;;5064998;28;20044;-65
2023/06/18 04:04:26;;;;;;;35.20;24.63;;;;;;;;;;5065584;28;20468;-65
2023/06/18 04:06:51;;;;;;;33.92;23.42;;;14.10;99.90;;;;;;5065337;28;20052;-65
2023/06/18 04:09:17;;;;;;;37.15;25.35;;;;;;;;;;5066938;28;20076;-65
2023/06/18 04:11:45;;;;;;;34.28;24.05;;;;;;;;;;5066699;28;20114;-65
2023/06/18 04:14:11;;;;;;;36.10;23.33;;;;;;;;;;5066766;28;20067;-65
2023/06/18 04:16:37;;;;;;;37.97;24.98;;;;;;;;;;5066439;28;20050;-65
2023/06/18 04:19:03;;;;;;;38.55;25.63;;;;;;;;;;5065277;28;20093;-65
2023/06/18 04:21:29;;;;;;;41.42;25.55;;;;;;;;;;5066585;28;20453;-65
2023/06/18 04:23:56;;;;;;;39.42;26.33;;;;;;;;;;5066426;28;20123;-65
2023/06/18 04:26:22;;;;;;;41.63;26.67;;;;;;;;;;5064962;28;20087;-65
2023/06/18 04:28:48;;;;;;;37.53;25.20;;;;;;;;;;5066557;28;20425;-65
2023/06/18 04:31:14;;;;;;;40.20;25.67;;;;;;;;;;5064523;28;20098;-65
2023/06/18 04:33:40;;;;;;;40.55;27.80;;;;;;;;;;5058866;28;20087;-65
2023/06/18 04:36:06;;;;;;;39.78;27.65;;;;;;;;;;5064838;28;20056;-65
2023/06/18 04:38:32;;;;;;;40.50;26.98;;;;;;;;;;5064599;28;20119;-65
2023/06/18 04:40:58;;;;;;;41.13;26.83;;;;;;;;;;5066185;28;20093;-65
2023/06/18 04:43:24;;;;;;;39.85;27.83;;;;;;;;;;5066133;28;20040;-65
2023/06/18 04:45:52;;;;;;;45.40;29.67;;;;;;;;;;5065856;28;20043;-65
2023/06/18 04:48:18;;;;;;;43.25;26.33;;;14.70;99.90;;;;;;5066052;28;20414;-65
2023/06/18 04:50:44;;;;;;;45.03;29.15;;;;;;;;;;5065723;28;20494;-65
2023/06/18 04:53:10;;;;;;;46.30;29.05;;;;;;;;;;5064677;28;20059;-65
2023/06/18 04:55:36;;;;;;;41.95;28.08;;;15.00;99.90;;;;;;5065582;28;20036;-65
2023/06/18 04:58:04;;;;;;;44.10;28.35;;;;;;;;;;5066016;28;20045;-65
2023/06/18 05:00:30;;;;;;;46.65;28.55;;;;;;;;;;5064321;28;20044;-65
2023/06/18 05:02:57;;;;;;;39.75;26.17;;;;;;;;;;5064037;28;20113;-65
2023/06/18 05:05:23;;;;;;;41.28;27.17;;;;;;;;;;5064212;28;20055;-65
2023/06/18 05:07:50;;;;;;;41.58;26.67;;;;;;;;;;5065658;28;20052;-65
2023/06/18 05:10:16;;;;;;;39.50;27.80;;;15.90;99.90;;;;;;5065770;28;20052;-65
2023/06/18 05:12:42;;;;;;;39.25;26.25;;;;;;;;;;5064119;28;20095;-65
2023/06/18 05:15:08;;;;;;;40.97;26.67;;;16.30;99.90;;;;;;5065275;28;20143;-65
2023/06/18 05:17:35;;;;;;;41.25;26.83;;;16.50;99.90;;;;;;5063845;28;20054;-65
2023/06/18 05:20:01;;;;;;;39.35;26.30;;;16.50;99.90;;;;;;5065340;28;20047;-65
2023/06/18 05:22:27;;;;;;;39.42;26.40;;;;;;;;;;5065567;28;20639;-65
2023/06/18 05:24:53;;;;;;;38.35;26.65;;;;;;;;;;5065427;28;20093;-65
2023/06/18 05:27:19;;;;;;;39.38;26.73;;;;;;;;;;5064129;28;20048;-65
2023/06/18 05:29:45;;;;;;;37.05;26.17;;;;;;;;;;5063818;28;20048;-65
2023/06/18 05:32:11;;;;;;;36.30;24.65;;;;;;;;;;5065466;28;20570;-65
2023/06/18 05:34:37;;;;;;;36.30;25.35;;;;;;;;;;5063627;28;21197;-65
2023/06/18 05:37:03;;;;;;;36.90;24.83;;;;;;;;;;5065341;28;20037;-65
2023/06/18 05:39:29;;;;;;;39.47;25.58;;;18.40;99.90;;;;;;5065595;28;20044;-65
2023/06/18 05:41:55;;;;;;;36.60;25.27;;;;;;;;;;5065096;28;20379;-65
2023/06/18 05:44:20;;;;;;;36.42;25.55;;;;;;;;;;5064013;28;20052;-65
2023/06/18 05:46:46;;;;;;;35.22;24.20;;;;;;;;;;5067355;28;20052;-65
2023/06/18 05:49:12;;;;;;;39.25;23.27;;;19.00;99.90;;;;;;5067908;28;20129;-65
2023/06/18 05:51:38;;;;;;;33.08;23.05;;;;;;;;;;5069317;28;20414;-65
2023/06/18 05:54:04;;;;;;;34.78;24.02;;;19.40;99.90;;;;;;5060799;28;20045;-65
2023/06/18 05:56:29;;;;;;;34.88;23.80;;;;;;;;;;5067903;28;20450;-65
2023/06/18 05:58:55;;;;;;;31.17;22.88;;;19.90;99.90;;;;;;5069108;28;20036;-65
2023/06/18 06:01:21;;;;;;;36.35;23.77;;;;;;;;;;5068191;28;20115;-65
2023/06/18 06:03:47;;;;;;;31.65;22.80;;;;;;;;;;5068807;28;20067;-65
2023/06/18 06:06:13;;;;;;;31.00;22.08;;;;;;;;;;5069774;28;20097;-65
2023/06/18 06:08:39;;;;;;;30.48;21.58;;;19.60;99.90;;;;;;5068463;28;20190;-65
2023/06/18 06:11:05;;;;;;;31.67;23.58;;;;;;;;;;5067385;28;20444;-66
2023/06/18 06:13:30;;;;;;;33.85;24.25;;;19.20;99.90;;;;;;5067548;28;20063;-66
2023/06/18 06:15:56;;;;;;;31.33;22.75;;;;;;;;;;5067213;28;20084;-67
2023/06/18 06:18:22;;;;;;;35.05;24.98;;;;;;;;;;5068999;28;20119;-66
2023/06/18 06:20:48;;;;;;;34.88;23.13;;;;;;;;;;5067285;28;20105;-66
2023/06/18 06:23:14;;;;;;;34.90;22.17;;;;;;;;;;5066924;28;20159;-66
2023/06/18 06:25:40;;;;;;;33.30;22.38;;;19.50;99.90;;;;;;5068856;28;20044;-67
2023/06/18 06:28:05;;;;;;;33.63;22.95;;;19.80;99.90;;;;;;5062519;28;20137;-66
2023/06/18 06:30:31;;;;;;;28.50;20.85;;;;;;;;;;5065578;28;20872;-66
2023/06/18 06:32:57;;;;;;;30.98;20.70;;;;;;;;;;5063888;28;20561;-66
2023/06/18 06:35:23;;;;;;;31.55;20.13;;;;;;;;;;5064847;28;20047;-66
2023/06/18 06:37:50;;;;;;;28.52;19.83;;;;;;;;;;5067645;28;20036;-66
2023/06/18 06:40:16;;;;;;;30.17;21.80;;;;;;;;;;5065307;28;20059;-67
2023/06/18 06:42:42;;;;;;;32.80;20.55;;;;;;;;;;5067494;28;20047;-67
2023/06/18 06:45:09;;;;;;;29.83;20.65;;;;;;;;;;5063049;28;20809;-66
2023/06/18 06:47:35;;;;;;;33.40;20.55;;;;;;;;;;5062271;28;20044;-66
2023/06/18 06:50:01;;;;;;;32.63;22.00;;;;;;;;;;5049001;28;20638;-66
2023/06/18 06:52:27;;;;;;;29.58;20.88;;;;;;;;;;5065563;28;20086;-66
2023/06/18 06:54:53;;;;;;;28.90;21.02;;;19.70;99.90;;;;;;5067690;28;20048;-66
2023/06/18 06:57:19;;;;;;;26.05;19.25;;;;;;;;;;5065329;28;20051;-66
2023/06/18 06:59:45;;;;;;;26.48;18.83;;;19.80;99.90;;;;;;5049895;28;20047;-66
2023/06/18 07:02:11;;;;;;;28.33;19.48;;;;;;;;;;5065843;28;20048;-66
2023/06/18 07:04:37;;;;;;;25.73;17.48;;;;;;;;;;5066418;28;20119;-66
2023/06/18 07:07:03;;;;;;;26.17;18.85;;;;;;;;;;5067273;28;20120;-66
2023/06/18 07:09:29;;;;;;;26.55;17.05;;;20.30;99.90;;;;;;5066044;28;20048;-66
2023/06/18 07:11:55;;;;;;;24.90;17.65;;;;;;;;;;5067668;28;20066;-66
2023/06/18 07:14:21;;;;;;;26.98;17.92;;;;;;;;;;5067270;28;20084;-66
2023/06/18 07:16:47;;;;;;;25.65;18.17;;;20.50;99.90;;;;;;5063230;28;20508;-66
2023/06/18 07:19:13;;;;;;;29.52;18.70;;;21.50;99.90;;;;;;5044581;28;20505;-66
2023/06/18 07:21:38;;;;;;;25.60;16.33;;;20.70;99.90;;;;;;5055251;28;20047;-67
2023/06/18 07:24:04;;;;;;;26.15;15.68;;;20.90;99.90;;;;;;5052475;28;20032;-67
2023/06/18 07:26:30;;;;;;;25.67;17.08;;;20.90;99.90;;;;;;5059748;28;20032;-66
2023/06/18 07:28:56;;;;;;;26.35;16.50;;;21.00;99.90;;;;;;5059750;28;20097;-67
2023/06/18 07:31:21;;;;;;;20.15;14.98;;;21.20;99.90;;;;;;5065932;28;20398;-67
2023/06/18 07:33:47;;;;;;;29.27;17.25;;;21.20;99.90;;;;;;5066923;28;20036;-67
2023/06/18 07:36:12;;;;;;;23.15;16.83;;;21.40;99.90;;;;;;5061034;28;20768;-66
2023/06/18 07:38:38;;;;;;;23.60;15.07;;;21.50;99.90;;;;;;5064874;28;20583;-66
2023/06/18 07:41:03;;;;;;;23.13;15.07;;;21.60;99.90;;;;;;5066485;28;20043;-67
2023/06/18 07:43:29;;;;;;;19.65;14.93;;;21.80;99.90;;;;;;5049202;28;20090;-67
2023/06/18 07:45:54;;;;;;;23.50;15.02;;;24.00;99.90;;;;;;5063380;28;21514;-67
2023/06/18 07:48:20;;;;;;;23.80;15.10;;;21.70;99.90;;;;;;5062804;28;20383;-66
2023/06/18 07:50:46;;;;;;;22.27;15.23;;;22.20;99.90;;;;;;5065639;28;20618;-66
2023/06/18 07:53:11;;;;;;;22.13;15.05;;;22.10;99.90;;;;;;5065741;28;20049;-66
2023/06/18 07:55:37;;;;;;;19.20;13.68;;;22.20;99.90;;;;;;5066153;28;20088;-66
2023/06/18 07:58:02;;;;;;;19.02;13.60;;;22.10;99.90;;;;;;5065467;28;20099;-66
2023/06/18 08:00:28;;;;;;;18.42;14.23;;;22.10;99.90;;;;;;5067069;28;20037;-66
2023/06/18 08:02:54;;;;;;;21.02;13.55;;;22.30;99.90;;;;;;5067277;28;20040;-66
2023/06/18 08:05:20;;;;;;;18.40;12.80;;;22.70;99.90;;;;;;5067286;28;20118;-66
2023/06/18 08:07:45;;;;;;;15.18;12.10;;;22.60;99.90;;;;;;5063505;28;20119;-66
2023/06/18 08:10:11;;;;;;;20.52;12.23;;;22.60;99.90;;;;;;5065390;28;20064;-66
2023/06/18 08:12:36;;;;;;;16.85;11.05;;;22.80;99.90;;;;;;5066989;28;20042;-66
2023/06/18 08:15:02;;;;;;;21.40;11.73;;;22.90;99.90;;;;;;5066781;28;20047;-66
2023/06/18 08:17:27;;;;;;;16.17;11.48;;;22.90;99.90;;;;;;5066854;28;20028;-66
2023/06/18 08:19:53;;;;;;;15.20;11.10;;;24.30;99.90;;;;;;5065995;28;20123;-66
2023/06/18 08:22:18;;;;;;;16.65;10.88;;;23.00;99.90;;;;;;5065519;28;20760;-66
2023/06/18 08:24:45;;;;;;;16.92;10.73;;;23.80;99.90;;;;;;5065595;28;20068;-66
2023/06/18 08:27:12;;;;;;;10.73;9.13;;;23.40;99.90;;;;;;5066600;28;20040;-66
2023/06/18 08:29:37;;;;;;;12.05;8.73;;;23.50;99.90;;;;;;5066482;28;20071;-66
2023/06/18 08:32:06;;;;;;;15.10;9.85;;;23.70;99.90;;;;;;5066691;28;20451;-66
2023/06/18 08:34:32;;;;;;;12.10;8.43;;;23.70;99.90;;;;;;5065201;28;20410;-66
2023/06/18 08:36:59;;;;;;;13.32;7.78;;;23.90;99.90;;;;;;5065097;28;20048;-66
2023/06/18 08:39:26;;;;;;;15.60;9.23;;;23.80;99.90;;;;;;5065847;28;20046;-66
2023/06/18 08:41:52;;;;;;;11.73;8.48;;;24.10;99.90;;;;;;5066542;28;20037;-66
2023/06/18 08:44:21;;;;;;;9.20;7.53;;;25.40;99.90;;;;;;5065924;28;20135;-66
2023/06/18 08:46:49;;;;;;;12.50;7.03;;;24.50;99.90;;;;;;5064682;28;20518;-66
2023/06/18 08:49:16;;;;;;;9.77;5.85;;;24.20;99.90;;;;;;5064460;28;20087;-66
2023/06/18 08:51:45;;;;;;;8.80;6.47;;;25.10;99.90;;;;;;5066180;28;20653;-66
2023/06/18 08:54:14;;;;;;;10.48;6.07;;;24.40;99.90;;;;;;5066198;28;20056;-66
2023/06/18 08:56:49;;;;;;;8.68;6.55;;;24.40;99.90;;;;;;5064988;28;20044;-66
2023/06/18 08:59:15;;;;;;;10.23;6.33;;;24.50;99.90;;;;;;5066432;28;20044;-66
2023/06/18 09:01:43;;;;;;;10.65;6.70;;;24.50;99.90;;;;;;5064471;28;20289;-66
2023/06/18 09:04:10;;;;;;;9.98;6.65;;;24.50;99.90;;;;;;5080621;28;20048;-66
2023/06/18 09:06:36;;;;;;;12.95;6.75;;;24.40;99.90;;;;;;5064491;28;20494;-66
2023/06/18 09:09:02;;;;;;;9.40;6.75;;;24.70;99.90;;;;;;5066202;28;20072;-66
2023/06/18 09:11:30;;;;;;;9.18;6.07;;;24.70;99.90;;;;;;5066043;28;20125;-66
2023/06/18 09:13:56;;;;;;;10.30;6.57;;;24.70;99.90;;;;;;5065890;28;20040;-67
2023/06/18 09:16:21;;;;;;;8.63;6.47;;;24.70;99.90;;;;;;5065877;28;20063;-66
2023/06/18 09:18:47;;;;;;;8.95;6.65;;;24.60;99.90;;;;;;5065782;28;20044;-66
2023/06/18 09:21:40;;;;;;;9.43;6.43;;;24.90;99.90;;;;;;5064516;28;20052;-66
2023/06/18 09:24:09;;;;;;;10.93;6.53;;;24.90;99.90;;;;;;5064871;28;20120;-66
2023/06/18 09:26:35;;;;;;;9.57;6.15;;;25.10;99.90;;;;;;5064852;28;20044;-66
2023/06/18 09:29:09;;;;;;;9.65;6.32;;;25.10;99.90;;;;;;5064551;28;20048;-66
2023/06/18 09:31:37;;;;;;;8.00;6.97;;;24.90;99.90;;;;;;5064604;28;20048;-66
2023/06/18 09:34:13;;;;;;;10.23;6.72;;;25.10;99.90;;;;;;5065555;28;20451;-66
2023/06/18 09:36:41;;;;;;;11.65;7.03;;;25.10;99.90;;;;;;5064473;28;20052;-66
2023/06/18 09:39:20;;;;;;;9.68;5.68;;;25.30;99.90;;;;;;5064088;28;20726;-66
2023/06/18 09:41:49;;;;;;;11.10;6.53;;;25.40;99.90;;;;;;5063792;28;20120;-67
2023/06/18 09:44:15;;;;;;;9.93;6.40;;;25.60;99.90;;;;;;5064551;28;20080;-66
2023/06/18 09:46:58;;;;;;;8.65;6.03;;;25.70;99.90;;;;;;5065513;28;20083;-66
2023/06/18 09:49:26;;;;;;;10.10;6.18;;;25.90;99.90;;;;;;5056842;28;20044;-66
2023/06/18 09:51:53;;;;;;;8.48;5.70;;;25.80;99.90;;;;;;5064155;28;20056;-66
2023/06/18 09:54:19;;;;;;;10.63;6.05;;;25.80;99.90;;;;;;5064418;28;20470;-67
2023/06/18 09:56:59;;;;;;;7.78;6.10;;;25.80;99.90;;;;;;5063966;28;20097;-66
2023/06/18 09:59:26;;;;;;;10.10;6.05;;;25.90;99.90;;;;;;5063633;28;20048;-66
2023/06/18 10:01:52;;;;;;;11.93;6.50;;;26.40;99.90;;;;;;5065342;28;20033;-67
2023/06/18 10:04:17;;;;;;;7.13;5.50;;;26.50;99.90;;;;;;5063842;28;20044;-66
2023/06/18 10:06:51;;;;;;;11.35;6.20;;;26.20;99.90;;;;;;5065170;28;20051;-66
2023/06/18 10:09:19;;;;;;;7.90;5.38;;;26.50;99.90;;;;;;5063921;28;20063;-67
2023/06/18 10:11:48;;;;;;;9.18;5.28;;;26.40;99.90;;;;;;5065399;28;20044;-67
2023/06/18 10:14:16;;;;;;;9.45;5.65;;;26.50;99.90;;;;;;5064837;28;20060;-67
2023/06/18 10:16:48;;;;;;;7.65;5.82;;;27.40;99.90;;;;;;5047211;28;20045;-67
2023/06/18 10:19:23;;;;;;;8.48;5.18;;;26.30;99.90;;;;;;5063379;28;20494;-67
2023/06/18 10:21:59;;;;;;;7.97;5.28;;;26.30;99.90;;;;;;5063822;28;20047;-67
2023/06/18 10:24:34;;;;;;;11.68;5.10;;;26.70;99.90;;;;;;5065379;28;20090;-67
2023/06/18 10:27:01;;;;;;;8.93;5.88;;;26.30;99.90;;;;;;5065327;28;20051;-66
2023/06/18 10:29:28;;;;;;;8.30;5.82;;;26.50;99.90;;;;;;5064329;28;20763;-67
2023/06/18 10:31:55;;;;;;;10.93;5.78;;;26.50;99.90;;;;;;5066934;28;20055;-67
2023/06/18 10:34:21;;;;;;;8.32;5.70;;;26.20;99.90;;;;;;5067642;28;20040;-67
2023/06/18 10:36:47;;;;;;;7.00;5.38;;;27.20;99.90;;;;;;5067289;28;20036;-67
2023/06/18 10:39:13;;;;;;;6.97;5.60;;;26.20;99.90;;;;;;5050508;28;20072;-67
2023/06/18 10:41:44;;;;;;;8.15;5.05;;;26.00;99.90;;;;;;5068817;28;20068;-67
2023/06/18 10:44:09;;;;;;;8.93;5.95;;;26.30;99.90;;;;;;5061926;28;20041;-67
2023/06/18 10:46:35;;;;;;;8.90;5.00;;;26.20;99.90;;;;;;5068572;28;20029;-66
2023/06/18 10:49:14;;;;;;;10.80;5.75;;;26.50;99.90;;;;;;5068478;28;20110;-67
2023/06/18 10:51:40;;;;;;;7.38;5.47;;;26.30;99.90;;;;;;5067124;28;20063;-67
2023/06/18 10:54:33;;;;;;;8.38;5.68;;;26.40;99.90;;;;;;5067041;28;20048;-67
2023/06/18 10:57:01;;;;;;;12.45;5.00;;;26.00;99.90;;;;;;5068418;28;20045;-67
2023/06/18 10:59:43;;;;;;;7.57;5.50;;;26.50;99.90;;;;;;5068148;28;20063;-67
2023/06/18 11:02:10;;;;;;;8.02;5.72;;;26.40;99.90;;;;;;5066801;28;20037;-67
2023/06/18 11:04:36;;;;;;;6.40;4.47;;;26.50;99.90;;;;;;5066521;28;20051;-67
2023/06/18 11:07:19;;;;;;;7.50;5.10;;;26.60;99.90;;;;;;5067059;28;20394;-67
2023/06/18 11:09:58;;;;;;;8.32;4.85;;;26.60;99.90;;;;;;5068264;28;20059;-67
2023/06/18 11:12:34;;;;;;;9.07;4.90;;;26.80;99.90;;;;;;5067030;28;20815;-67
2023/06/18 11:15:09;;;;;;;10.18;5.43;;;26.70;99.90;;;;;;5066418;28;20076;-67
2023/06/18 11:17:35;;;;;;;8.02;5.15;;;26.70;99.90;;;;;;5067000;28;20098;-67
2023/06/18 11:20:03;;;;;;;6.35;4.88;;;26.70;99.90;;;;;;5067698;28;20747;-67
2023/06/18 11:22:28;;;;;;;6.15;4.95;;;26.70;99.90;;;;;;5068254;28;20136;-67
2023/06/18 11:24:56;;;;;;;7.25;5.38;;;28.10;99.90;;;;;;5068150;28;20537;-67
2023/06/18 11:27:25;;;;;;;8.60;4.80;;;26.50;99.90;;;;;;5066461;28;20084;-67
2023/06/18 11:29:55;;;;;;;13.25;5.25;;;26.60;99.90;;;;;;5049920;28;20119;-67
2023/06/18 11:32:23;;;;;;;8.60;5.70;;;26.70;99.90;;;;;;5068053;28;20051;-67
2023/06/18 11:34:49;;;;;;;7.75;4.82;;;27.00;99.90;;;;;;5068008;28;20055;-67
2023/06/18 11:37:15;;;;;;;8.07;5.13;;;26.90;99.90;;;;;;5066633;28;20079;-67
2023/06/18 11:39:41;;;;;;;7.72;5.45;;;26.80;99.90;;;;;;5068287;28;20044;-67
2023/06/18 11:42:19;;;;;;;9.07;4.82;;;26.90;99.90;;;;;;5065784;28;20032;-67
2023/06/18 11:44:52;;;;;;;8.77;5.43;;;27.20;99.90;;;;;;5067463;28;20037;-67
2023/06/18 11:47:18;;;;;;;8.23;4.78;;;26.90;99.90;;;;;;5060224;28;20127;-66
2023/06/18 11:49:45;;;;;;;7.68;5.43;;;27.70;99.90;;;;;;5064017;28;20049;-67
2023/06/18 11:52:13;;;;;;;8.35;5.32;;;27.20;99.90;;;;;;5067445;28;20072;-66
2023/06/18 11:54:40;;;;;;;9.45;4.40;;;26.90;99.90;;;;;;5067764;28;20067;-67
2023/06/18 11:57:13;;;;;;;6.68;4.30;;;26.80;99.90;;;;;;5067041;28;20048;-67
2023/06/18 11:59:40;;;;;;;4.53;3.60;;;27.10;99.90;;;;;;5065877;28;20048;-67
2023/06/18 12:02:18;;;;;;;8.05;4.85;;;27.20;99.90;;;;;;5065655;28;20075;-67
2023/06/18 12:04:44;;;;;;;7.10;4.47;;;27.40;99.90;;;;;;5065724;28;20048;-66
2023/06/18 12:07:21;;;;;;;6.65;4.43;;;27.20;99.90;;;;;;5065640;28;20063;-67
2023/06/18 12:09:48;;;;;;;8.60;4.50;;;27.00;99.90;;;;;;5066731;28;20036;-67
2023/06/18 12:12:32;;;;;;;7.40;4.93;;;27.30;99.90;;;;;;5066870;28;20059;-67
2023/06/18 12:15:12;;;;;;;7.45;4.45;;;27.30;99.90;;;;;;5060401;28;20612;-67
2023/06/18 12:17:57;;;;;;;9.40;5.15;;;28.50;99.90;;;;;;5065497;28;20482;-67
2023/06/18 12:20:25;;;;;;;5.70;4.75;;;27.30;99.90;;;;;;5065407;28;20473;-67
2023/06/18 12:22:51;;;;;;;6.25;5.18;;;27.60;99.90;;;;;;5066675;28;20811;-67
2023/06/18 12:25:21;;;;;;;9.30;5.13;;;27.20;99.90;;;;;;5065745;28;20044;-67
2023/06/18 12:27:49;;;;;;;7.43;4.55;;;27.50;99.90;;;;;;5067401;28;20032;-67
2023/06/18 12:30:15;;;;;;;8.00;5.40;;;26.90;99.90;;;;;;5067179;28;20039;-67
2023/06/18 12:32:40;;;;;;;5.03;4.30;;;27.30;99.90;;;;;;5065745;28;20036;-67
2023/06/18 12:35:14;;;;;;;6.97;4.85;;;27.30;99.90;;;;;;5066771;28;20052;-67
2023/06/18 12:37:47;;;;;;;7.82;5.32;;;27.40;99.90;;;;;;5067013;28;20048;-67
2023/06/18 12:40:19;;;;;;;8.98;5.30;;;27.50;99.90;;;;;;5065641;28;20052;-67
2023/06/18 12:42:48;;;;;;;8.10;5.07;;;27.50;99.90;;;;;;5048849;28;20040;-67
2023/06/18 12:45:15;;;;;;;8.65;4.85;;;27.60;99.90;;;;;;5066459;28;20498;-67
2023/06/18 12:47:45;;;;;;;8.25;5.28;;;27.40;99.90;;;;;;5066866;28;20115;-67
2023/06/18 12:50:12;;;;;;;9.57;5.35;;;27.50;99.90;;;;;;5062644;28;20410;-67
2023/06/18 12:52:43;;;;;;;8.98;5.32;;;27.90;99.90;;;;;;5065276;28;20111;-67
2023/06/18 12:55:16;;;;;;;9.15;5.25;;;27.50;99.90;;;;;;5064824;28;20601;-67
2023/06/18 12:57:43;;;;;;;7.22;5.18;;;27.80;99.90;;;;;;5066490;28;20169;-67
2023/06/18 13:00:15;;;;;;;7.85;5.38;;;27.70;99.90;;;;;;5066402;28;20448;-67
2023/06/18 13:02:40;;;;;;;6.53;5.43;;;27.60;99.90;;;;;;5065315;28;20139;-67
2023/06/18 13:05:06;;;;;;;7.40;4.80;;;28.60;99.90;;;;;;5065177;28;20588;-67
2023/06/18 13:07:32;;;;;;;8.98;5.25;;;27.40;99.90;;;;;;5064545;28;20040;-67
2023/06/18 13:09:58;;;;;;;8.35;4.85;;;27.20;99.90;;;;;;5066753;28;20089;-67
2023/06/18 13:12:24;;;;;;;5.68;5.10;;;27.70;99.90;;;;;;5064545;28;20607;-67